sensor_id;sensor_type;location;lat;lon;timestamp;pressure;altitude;pressure_sealevel;temperature;humidity
35848;BME280;22332;51.954;20.118;2024-02-04T00:00:18;99672.60;;;7.00;88.30
35848;BME280;22332;51.954;20.118;2024-02-04T00:03:44;99668.46;;;6.92;88.23
35848;BME280;22332;51.954;20.118;2024-02-04T00:06:49;99669.50;;;6.88;88.00
35848;BME280;22332;51.954;20.118;2024-02-04T00:09:55;99666.54;;;6.84;87.98
35848;BME280;22332;51.954;20.118;2024-02-04T00:13:01;99657.27;;;6.82;88.44
35848;BME280;22332;51.954;20.118;2024-02-04T00:16:08;99654.89;;;6.84;87.97
35848;BME280;22332;51.954;20.118;2024-02-04T00:19:13;99652.55;;;6.84;87.65
35848;BME280;22332;51.954;20.118;2024-02-04T00:22:19;99650.38;;;6.83;87.89
35848;BME280;22332;51.954;20.118;2024-02-04T00:25:24;99645.69;;;6.80;87.78
35848;BME280;22332;51.954;20.118;2024-02-04T00:28:30;99640.39;;;6.74;88.03
35848;BME280;22332;51.954;20.118;2024-02-04T00:31:36;99644.67;;;6.72;87.82
35848;BME280;22332;51.954;20.118;2024-02-04T00:34:41;99643.25;;;6.72;87.97
35848;BME280;22332;51.954;20.118;2024-02-04T00:37:47;99646.21;;;6.73;88.19
35848;BME280;22332;51.954;20.118;2024-02-04T00:40:52;99645.86;;;6.68;88.31
35848;BME280;22332;51.954;20.118;2024-02-04T00:43:59;99645.29;;;6.65;88.46
35848;BME280;22332;51.954;20.118;2024-02-04T00:47:05;99645.33;;;6.59;88.07
35848;BME280;22332;51.954;20.118;2024-02-04T00:50:11;99647.72;;;6.54;88.31
35848;BME280;22332;51.954;20.118;2024-02-04T00:53:16;99647.65;;;6.53;88.23
35848;BME280;22332;51.954;20.118;2024-02-04T00:56:22;99643.61;;;6.56;88.06
35848;BME280;22332;51.954;20.118;2024-02-04T00:59:28;99638.01;;;6.56;88.36
35848;BME280;22332;51.954;20.118;2024-02-04T01:02:33;99636.95;;;6.54;88.16
35848;BME280;22332;51.954;20.118;2024-02-04T01:05:39;99644.46;;;6.51;88.08
35848;BME280;22332;51.954;20.118;2024-02-04T01:08:45;99645.90;;;6.47;88.07
35848;BME280;22332;51.954;20.118;2024-02-04T01:11:50;99648.23;;;6.41;87.97
35848;BME280;22332;51.954;20.118;2024-02-04T01:14:57;99655.27;;;6.37;88.11
35848;BME280;22332;51.954;20.118;2024-02-04T01:18:03;99649.73;;;6.38;87.90
35848;BME280;22332;51.954;20.118;2024-02-04T01:21:08;99648.83;;;6.40;87.91
35848;BME280;22332;51.954;20.118;2024-02-04T01:24:14;99652.91;;;6.42;87.48
35848;BME280;22332;51.954;20.118;2024-02-04T01:27:20;99647.99;;;6.40;87.51
35848;BME280;22332;51.954;20.118;2024-02-04T01:30:25;99645.60;;;6.33;87.59
35848;BME280;22332;51.954;20.118;2024-02-04T01:33:32;99648.62;;;6.31;87.60
35848;BME280;22332;51.954;20.118;2024-02-04T01:36:38;99643.90;;;6.31;87.42
35848;BME280;22332;51.954;20.118;2024-02-04T01:39:44;99640.45;;;6.32;87.23
35848;BME280;22332;51.954;20.118;2024-02-04T01:42:49;99638.19;;;6.33;87.53
35848;BME280;22332;51.954;20.118;2024-02-04T01:45:55;99636.50;;;6.30;87.16
35848;BME280;22332;51.954;20.118;2024-02-04T01:49:01;99634.54;;;6.26;87.37
35848;BME280;22332;51.954;20.118;2024-02-04T01:52:08;99635.27;;;6.22;87.59
35848;BME280;22332;51.954;20.118;2024-02-04T01:55:16;99634.98;;;6.18;87.51
35848;BME280;22332;51.954;20.118;2024-02-04T01:58:23;99644.33;;;6.18;87.66
35848;BME280;22332;51.954;20.118;2024-02-04T02:01:29;99641.52;;;6.20;87.73
35848;BME280;22332;51.954;20.118;2024-02-04T02:04:35;99638.09;;;6.22;87.68
35848;BME280;22332;51.954;20.118;2024-02-04T02:07:41;99644.86;;;6.24;87.88
35848;BME280;22332;51.954;20.118;2024-02-04T02:10:56;99641.34;;;6.23;88.07
35848;BME280;22332;51.954;20.118;2024-02-04T02:14:04;99640.70;;;6.23;87.79
35848;BME280;22332;51.954;20.118;2024-02-04T02:17:14;99629.58;;;6.25;87.76
35848;BME280;22332;51.954;20.118;2024-02-04T02:20:26;99626.91;;;6.31;87.90
35848;BME280;22332;51.954;20.118;2024-02-04T02:23:36;99627.33;;;6.40;87.78
35848;BME280;22332;51.954;20.118;2024-02-04T02:26:46;99622.89;;;6.44;87.37
35848;BME280;22332;51.954;20.118;2024-02-04T02:29:51;99618.59;;;6.42;87.16
35848;BME280;22332;51.954;20.118;2024-02-04T02:32:58;99621.83;;;6.42;87.21
35848;BME280;22332;51.954;20.118;2024-02-04T02:36:09;99616.48;;;6.37;86.74
35848;BME280;22332;51.954;20.118;2024-02-04T02:39:20;99621.68;;;6.32;86.89
35848;BME280;22332;51.954;20.118;2024-02-04T02:42:27;99626.73;;;6.35;86.92
35848;BME280;22332;51.954;20.118;2024-02-04T02:45:35;99630.41;;;6.35;86.01
35848;BME280;22332;51.954;20.118;2024-02-04T02:48:42;99634.57;;;6.36;86.06
35848;BME280;22332;51.954;20.118;2024-02-04T02:51:48;99635.60;;;6.34;85.79
35848;BME280;22332;51.954;20.118;2024-02-04T02:54:54;99636.52;;;6.32;85.88
35848;BME280;22332;51.954;20.118;2024-02-04T02:57:59;99629.69;;;6.29;85.43
35848;BME280;22332;51.954;20.118;2024-02-04T03:01:05;99623.84;;;6.27;85.78
35848;BME280;22332;51.954;20.118;2024-02-04T03:04:10;99632.30;;;6.26;85.20
35848;BME280;22332;51.954;20.118;2024-02-04T03:07:16;99639.42;;;6.25;84.77
35848;BME280;22332;51.954;20.118;2024-02-04T03:10:21;99643.85;;;6.29;84.78
35848;BME280;22332;51.954;20.118;2024-02-04T03:13:29;99646.83;;;6.27;84.51
35848;BME280;22332;51.954;20.118;2024-02-04T03:16:35;99657.60;;;6.25;84.34
35848;BME280;22332;51.954;20.118;2024-02-04T03:19:41;99656.79;;;6.20;84.47
35848;BME280;22332;51.954;20.118;2024-02-04T03:22:49;99651.33;;;6.19;85.24
35848;BME280;22332;51.954;20.118;2024-02-04T03:25:55;99644.69;;;6.23;85.14
35848;BME280;22332;51.954;20.118;2024-02-04T03:29:02;99656.72;;;6.27;84.76
35848;BME280;22332;51.954;20.118;2024-02-04T03:32:10;99678.11;;;6.27;84.64
35848;BME280;22332;51.954;20.118;2024-02-04T03:35:16;99683.20;;;6.23;84.77
35848;BME280;22332;51.954;20.118;2024-02-04T03:38:22;99667.48;;;6.22;84.95
35848;BME280;22332;51.954;20.118;2024-02-04T03:41:29;99660.03;;;6.18;84.89
35848;BME280;22332;51.954;20.118;2024-02-04T03:44:36;99651.44;;;6.15;85.14
35848;BME280;22332;51.954;20.118;2024-02-04T03:47:42;99652.52;;;6.14;85.18
35848;BME280;22332;51.954;20.118;2024-02-04T03:50:47;99655.83;;;6.12;84.75
35848;BME280;22332;51.954;20.118;2024-02-04T03:53:53;99651.52;;;6.15;85.07
35848;BME280;22332;51.954;20.118;2024-02-04T03:56:59;99650.20;;;6.16;84.76
35848;BME280;22332;51.954;20.118;2024-02-04T04:00:06;99646.52;;;6.15;84.52
35848;BME280;22332;51.954;20.118;2024-02-04T04:03:16;99648.46;;;6.14;84.58
35848;BME280;22332;51.954;20.118;2024-02-04T04:06:21;99656.79;;;6.11;84.38
35848;BME280;22332;51.954;20.118;2024-02-04T04:09:27;99658.58;;;6.09;84.10
35848;BME280;22332;51.954;20.118;2024-02-04T04:12:33;99660.25;;;6.08;84.13
35848;BME280;22332;51.954;20.118;2024-02-04T04:15:38;99671.20;;;6.10;83.50
35848;BME280;22332;51.954;20.118;2024-02-04T04:18:45;99679.84;;;6.10;83.46
35848;BME280;22332;51.954;20.118;2024-02-04T04:21:51;99685.85;;;6.06;83.18
35848;BME280;22332;51.954;20.118;2024-02-04T04:24:56;99685.39;;;5.97;82.36
35848;BME280;22332;51.954;20.118;2024-02-04T04:28:03;99692.94;;;5.83;82.31
35848;BME280;22332;51.954;20.118;2024-02-04T04:31:08;99691.87;;;5.76;82.73
35848;BME280;22332;51.954;20.118;2024-02-04T04:34:14;99687.43;;;5.70;82.67
35848;BME280;22332;51.954;20.118;2024-02-04T04:37:22;99685.58;;;5.65;82.73
35848;BME280;22332;51.954;20.118;2024-02-04T04:40:28;99686.02;;;5.60;82.39
35848;BME280;22332;51.954;20.118;2024-02-04T04:43:36;99686.61;;;5.57;82.73
35848;BME280;22332;51.954;20.118;2024-02-04T04:46:42;99689.31;;;5.55;82.81
35848;BME280;22332;51.954;20.118;2024-02-04T04:49:47;99687.88;;;5.51;82.69
35848;BME280;22332;51.954;20.118;2024-02-04T04:52:53;99688.91;;;5.41;82.53
35848;BME280;22332;51.954;20.118;2024-02-04T04:55:59;99688.84;;;5.36;82.75
35848;BME280;22332;51.954;20.118;2024-02-04T04:59:04;99688.13;;;5.28;82.71
35848;BME280;22332;51.954;20.118;2024-02-04T05:02:10;99682.71;;;5.25;83.14
35848;BME280;22332;51.954;20.118;2024-02-04T05:05:15;99692.14;;;5.24;82.82
35848;BME280;22332;51.954;20.118;2024-02-04T05:08:21;99698.14;;;5.24;82.72
35848;BME280;22332;51.954;20.118;2024-02-04T05:11:26;99700.46;;;5.22;82.90
35848;BME280;22332;51.954;20.118;2024-02-04T05:14:32;99707.94;;;5.19;83.03
35848;BME280;22332;51.954;20.118;2024-02-04T05:17:38;99711.34;;;5.14;82.84
35848;BME280;22332;51.954;20.118;2024-02-04T05:20:44;99705.42;;;5.11;82.91
35848;BME280;22332;51.954;20.118;2024-02-04T05:23:50;99707.17;;;5.09;82.90
35848;BME280;22332;51.954;20.118;2024-02-04T05:26:55;99708.95;;;5.03;82.96
35848;BME280;22332;51.954;20.118;2024-02-04T05:30:01;99708.87;;;5.02;83.19
35848;BME280;22332;51.954;20.118;2024-02-04T05:33:07;99706.73;;;5.02;83.02
35848;BME280;22332;51.954;20.118;2024-02-04T05:36:12;99703.16;;;5.04;83.11
35848;BME280;22332;51.954;20.118;2024-02-04T05:39:18;99709.45;;;5.09;82.92
35848;BME280;22332;51.954;20.118;2024-02-04T05:42:24;99714.64;;;5.12;82.79
35848;BME280;22332;51.954;20.118;2024-02-04T05:45:29;99718.11;;;5.11;82.79
35848;BME280;22332;51.954;20.118;2024-02-04T05:48:35;99717.23;;;5.13;82.84
35848;BME280;22332;51.954;20.118;2024-02-04T05:51:41;99713.64;;;5.14;82.67
35848;BME280;22332;51.954;20.118;2024-02-04T05:54:47;99704.92;;;5.13;82.63
35848;BME280;22332;51.954;20.118;2024-02-04T05:57:52;99713.00;;;5.13;82.51
35848;BME280;22332;51.954;20.118;2024-02-04T06:00:58;99709.92;;;5.14;82.42
35848;BME280;22332;51.954;20.118;2024-02-04T06:04:04;99715.95;;;5.14;82.30
35848;BME280;22332;51.954;20.118;2024-02-04T06:07:10;99715.95;;;5.12;82.50
35848;BME280;22332;51.954;20.118;2024-02-04T06:10:15;99714.08;;;5.06;82.35
35848;BME280;22332;51.954;20.118;2024-02-04T06:13:22;99717.04;;;5.01;82.48
35848;BME280;22332;51.954;20.118;2024-02-04T06:16:28;99718.41;;;4.99;82.56
35848;BME280;22332;51.954;20.118;2024-02-04T06:19:34;99729.50;;;4.97;82.53
35848;BME280;22332;51.954;20.118;2024-02-04T06:22:39;99722.39;;;5.00;82.87
35848;BME280;22332;51.954;20.118;2024-02-04T06:25:45;99727.55;;;5.04;82.55
35848;BME280;22332;51.954;20.118;2024-02-04T06:28:50;99722.36;;;5.05;82.76
35848;BME280;22332;51.954;20.118;2024-02-04T06:31:56;99723.57;;;5.05;82.74
35848;BME280;22332;51.954;20.118;2024-02-04T06:35:01;99712.21;;;5.04;82.70
35848;BME280;22332;51.954;20.118;2024-02-04T06:38:07;99708.04;;;5.01;82.81
35848;BME280;22332;51.954;20.118;2024-02-04T06:41:13;99712.11;;;4.97;82.96
35848;BME280;22332;51.954;20.118;2024-02-04T06:44:18;99711.41;;;4.95;82.83
35848;BME280;22332;51.954;20.118;2024-02-04T06:47:24;99712.52;;;4.96;83.12
35848;BME280;22332;51.954;20.118;2024-02-04T06:50:30;99717.09;;;5.00;83.15
35848;BME280;22332;51.954;20.118;2024-02-04T06:53:35;99718.17;;;5.06;83.20
35848;BME280;22332;51.954;20.118;2024-02-04T06:56:41;99728.05;;;5.10;82.88
35848;BME280;22332;51.954;20.118;2024-02-04T06:59:46;99728.37;;;5.11;82.83
35848;BME280;22332;51.954;20.118;2024-02-04T07:02:52;99727.66;;;5.13;82.70
35848;BME280;22332;51.954;20.118;2024-02-04T07:05:58;99726.89;;;5.16;82.84
35848;BME280;22332;51.954;20.118;2024-02-04T07:09:04;99722.61;;;5.18;82.63
35848;BME280;22332;51.954;20.118;2024-02-04T07:12:10;99723.41;;;5.19;82.77
35848;BME280;22332;51.954;20.118;2024-02-04T07:15:15;99720.71;;;5.24;82.76
35848;BME280;22332;51.954;20.118;2024-02-04T07:18:21;99714.84;;;5.31;82.32
35848;BME280;22332;51.954;20.118;2024-02-04T07:21:29;99704.59;;;5.35;82.22
35848;BME280;22332;51.954;20.118;2024-02-04T07:24:35;99692.87;;;5.38;81.84
35848;BME280;22332;51.954;20.118;2024-02-04T07:27:41;99692.31;;;5.38;82.01
35848;BME280;22332;51.954;20.118;2024-02-04T07:30:46;99695.12;;;5.42;82.02
35848;BME280;22332;51.954;20.118;2024-02-04T07:33:52;99697.45;;;5.44;81.69
35848;BME280;22332;51.954;20.118;2024-02-04T07:36:57;99704.34;;;5.46;81.37
35848;BME280;22332;51.954;20.118;2024-02-04T07:40:04;99703.70;;;5.51;81.49
35848;BME280;22332;51.954;20.118;2024-02-04T07:43:10;99702.65;;;5.57;81.23
35848;BME280;22332;51.954;20.118;2024-02-04T07:46:16;99704.00;;;5.68;81.04
35848;BME280;22332;51.954;20.118;2024-02-04T07:49:21;99704.52;;;5.74;80.00
35848;BME280;22332;51.954;20.118;2024-02-04T07:52:27;99701.48;;;5.87;80.37
35848;BME280;22332;51.954;20.118;2024-02-04T07:55:33;99701.34;;;6.03;79.65
35848;BME280;22332;51.954;20.118;2024-02-04T07:58:38;99695.73;;;6.14;79.08
35848;BME280;22332;51.954;20.118;2024-02-04T08:01:44;99695.39;;;6.23;78.74
35848;BME280;22332;51.954;20.118;2024-02-04T08:04:49;99692.83;;;6.28;78.69
35848;BME280;22332;51.954;20.118;2024-02-04T08:07:55;99699.26;;;6.32;78.50
35848;BME280;22332;51.954;20.118;2024-02-04T08:11:00;99700.91;;;6.31;77.52
35848;BME280;22332;51.954;20.118;2024-02-04T08:14:06;99701.84;;;6.33;78.09
35848;BME280;22332;51.954;20.118;2024-02-04T08:17:12;99702.11;;;6.31;76.98
35848;BME280;22332;51.954;20.118;2024-02-04T08:20:18;99701.35;;;6.18;76.27
35848;BME280;22332;51.954;20.118;2024-02-04T08:23:25;99713.95;;;6.08;76.01
35848;BME280;22332;51.954;20.118;2024-02-04T08:26:31;99711.08;;;6.02;76.15
35848;BME280;22332;51.954;20.118;2024-02-04T08:29:36;99694.06;;;6.03;76.94
35848;BME280;22332;51.954;20.118;2024-02-04T08:32:42;99689.77;;;6.09;77.43
35848;BME280;22332;51.954;20.118;2024-02-04T08:35:47;99689.42;;;6.15;77.34
35848;BME280;22332;51.954;20.118;2024-02-04T08:38:53;99687.19;;;6.20;76.90
35848;BME280;22332;51.954;20.118;2024-02-04T08:41:59;99688.89;;;6.27;77.62
35848;BME280;22332;51.954;20.118;2024-02-04T08:45:06;99687.31;;;6.29;76.04
35848;BME280;22332;51.954;20.118;2024-02-04T08:48:12;99687.75;;;6.28;76.92
35848;BME280;22332;51.954;20.118;2024-02-04T08:51:17;99693.49;;;6.31;77.29
35848;BME280;22332;51.954;20.118;2024-02-04T08:54:23;99685.85;;;6.35;77.12
35848;BME280;22332;51.954;20.118;2024-02-04T08:57:29;99694.11;;;6.40;76.42
35848;BME280;22332;51.954;20.118;2024-02-04T09:00:34;99701.33;;;6.38;77.02
35848;BME280;22332;51.954;20.118;2024-02-04T09:03:40;99699.53;;;6.42;77.00
35848;BME280;22332;51.954;20.118;2024-02-04T09:06:46;99706.33;;;6.41;76.36
35848;BME280;22332;51.954;20.118;2024-02-04T09:09:53;99705.95;;;6.38;76.17
35848;BME280;22332;51.954;20.118;2024-02-04T09:12:59;99708.86;;;6.37;76.47
35848;BME280;22332;51.954;20.118;2024-02-04T09:16:05;99707.20;;;6.38;75.68
35848;BME280;22332;51.954;20.118;2024-02-04T09:19:11;99713.19;;;6.34;76.46
35848;BME280;22332;51.954;20.118;2024-02-04T09:22:16;99719.38;;;6.32;75.25
35848;BME280;22332;51.954;20.118;2024-02-04T09:25:24;99713.95;;;6.34;76.10
35848;BME280;22332;51.954;20.118;2024-02-04T09:28:29;99716.12;;;6.41;76.22
35848;BME280;22332;51.954;20.118;2024-02-04T09:31:35;99723.84;;;6.51;76.32
35848;BME280;22332;51.954;20.118;2024-02-04T09:34:41;99729.67;;;6.57;75.83
35848;BME280;22332;51.954;20.118;2024-02-04T09:37:46;99724.68;;;6.61;76.11
35848;BME280;22332;51.954;20.118;2024-02-04T09:40:52;99713.93;;;6.68;76.41
35848;BME280;22332;51.954;20.118;2024-02-04T09:43:58;99710.91;;;6.72;75.50
35848;BME280;22332;51.954;20.118;2024-02-04T09:47:05;99714.86;;;6.72;75.59
35848;BME280;22332;51.954;20.118;2024-02-04T09:50:13;99695.93;;;6.64;75.76
35848;BME280;22332;51.954;20.118;2024-02-04T09:53:25;99687.60;;;6.68;76.29
35848;BME280;22332;51.954;20.118;2024-02-04T09:56:37;99689.08;;;6.73;75.93
35848;BME280;22332;51.954;20.118;2024-02-04T09:59:45;99673.80;;;6.80;76.40
35848;BME280;22332;51.954;20.118;2024-02-04T10:02:51;99670.84;;;6.95;76.09
35848;BME280;22332;51.954;20.118;2024-02-04T10:05:59;99661.34;;;7.03;76.14
35848;BME280;22332;51.954;20.118;2024-02-04T10:09:04;99658.06;;;7.14;75.86
35848;BME280;22332;51.954;20.118;2024-02-04T10:12:11;99651.03;;;7.15;75.16
35848;BME280;22332;51.954;20.118;2024-02-04T10:15:16;99638.29;;;7.19;76.09
35848;BME280;22332;51.954;20.118;2024-02-04T10:18:22;99634.23;;;7.28;76.17
35848;BME280;22332;51.954;20.118;2024-02-04T10:21:29;99634.39;;;7.34;75.73
35848;BME280;22332;51.954;20.118;2024-02-04T10:24:35;99634.81;;;7.33;75.81
35848;BME280;22332;51.954;20.118;2024-02-04T10:27:40;99639.32;;;7.27;75.56
35848;BME280;22332;51.954;20.118;2024-02-04T10:30:46;99643.33;;;7.20;76.82
35848;BME280;22332;51.954;20.118;2024-02-04T10:33:52;99631.48;;;7.13;76.97
35848;BME280;22332;51.954;20.118;2024-02-04T10:36:58;99627.50;;;7.04;77.24
35848;BME280;22332;51.954;20.118;2024-02-04T10:40:05;99610.62;;;6.92;77.56
35848;BME280;22332;51.954;20.118;2024-02-04T10:43:12;99609.62;;;6.84;77.62
35848;BME280;22332;51.954;20.118;2024-02-04T10:46:19;99606.19;;;6.83;77.80
35848;BME280;22332;51.954;20.118;2024-02-04T10:49:27;99600.75;;;6.88;78.11
35848;BME280;22332;51.954;20.118;2024-02-04T10:52:37;99588.45;;;6.96;78.22
35848;BME280;22332;51.954;20.118;2024-02-04T10:55:45;99586.08;;;6.99;78.36
35848;BME280;22332;51.954;20.118;2024-02-04T10:58:53;99578.16;;;7.02;78.26
35848;BME280;22332;51.954;20.118;2024-02-04T11:02:00;99575.35;;;7.02;78.45
35848;BME280;22332;51.954;20.118;2024-02-04T11:05:07;99564.77;;;6.94;78.57
35848;BME280;22332;51.954;20.118;2024-02-04T11:08:14;99571.33;;;6.91;78.55
35848;BME280;22332;51.954;20.118;2024-02-04T11:11:19;99567.84;;;6.88;78.63
35848;BME280;22332;51.954;20.118;2024-02-04T11:14:29;99564.29;;;6.81;79.09
35848;BME280;22332;51.954;20.118;2024-02-04T11:17:51;99557.66;;;6.80;79.24
35848;BME280;22332;51.954;20.118;2024-02-04T11:21:18;99556.27;;;6.85;79.52
35848;BME280;22332;51.954;20.118;2024-02-04T11:24:41;99548.46;;;6.91;79.32
35848;BME280;22332;51.954;20.118;2024-02-04T11:27:50;99546.92;;;6.96;79.68
35848;BME280;22332;51.954;20.118;2024-02-04T11:30:55;99540.69;;;6.98;79.43
35848;BME280;22332;51.954;20.118;2024-02-04T11:34:01;99534.63;;;7.02;79.46
35848;BME280;22332;51.954;20.118;2024-02-04T11:37:17;99534.66;;;7.08;79.81
35848;BME280;22332;51.954;20.118;2024-02-04T11:40:23;99529.21;;;7.13;79.54
35848;BME280;22332;51.954;20.118;2024-02-04T11:43:36;99526.03;;;7.17;79.27
35848;BME280;22332;51.954;20.118;2024-02-04T11:46:47;99518.25;;;7.17;79.12
35848;BME280;22332;51.954;20.118;2024-02-04T11:49:57;99516.96;;;7.19;79.25
35848;BME280;22332;51.954;20.118;2024-02-04T11:53:08;99510.46;;;7.27;78.93
35848;BME280;22332;51.954;20.118;2024-02-04T11:56:14;99508.80;;;7.34;78.48
35848;BME280;22332;51.954;20.118;2024-02-04T11:59:21;99507.03;;;7.33;78.15
35848;BME280;22332;51.954;20.118;2024-02-04T12:02:28;99506.43;;;7.40;78.37
35848;BME280;22332;51.954;20.118;2024-02-04T12:05:37;99490.17;;;7.41;78.57
35848;BME280;22332;51.954;20.118;2024-02-04T12:08:44;99475.33;;;7.44;78.46
35848;BME280;22332;51.954;20.118;2024-02-04T12:11:49;99474.27;;;7.44;78.50
35848;BME280;22332;51.954;20.118;2024-02-04T12:14:56;99470.08;;;7.47;78.48
35848;BME280;22332;51.954;20.118;2024-02-04T12:18:08;99463.31;;;7.44;77.95
35848;BME280;22332;51.954;20.118;2024-02-04T12:21:15;99453.56;;;7.44;78.41
35848;BME280;22332;51.954;20.118;2024-02-04T12:24:21;99445.32;;;7.44;77.67
35848;BME280;22332;51.954;20.118;2024-02-04T12:27:27;99441.28;;;7.43;78.12
35848;BME280;22332;51.954;20.118;2024-02-04T12:30:35;99429.80;;;7.51;78.33
35848;BME280;22332;51.954;20.118;2024-02-04T12:33:41;99428.00;;;7.55;78.21
35848;BME280;22332;51.954;20.118;2024-02-04T12:36:47;99432.81;;;7.59;77.87
35848;BME280;22332;51.954;20.118;2024-02-04T12:40:02;99430.48;;;7.61;77.71
35848;BME280;22332;51.954;20.118;2024-02-04T12:43:29;99423.53;;;7.60;77.27
35848;BME280;22332;51.954;20.118;2024-02-04T12:46:38;99424.59;;;7.57;77.13
35848;BME280;22332;51.954;20.118;2024-02-04T12:49:43;99418.95;;;7.51;77.28
35848;BME280;22332;51.954;20.118;2024-02-04T12:52:50;99423.58;;;7.47;77.22
35848;BME280;22332;51.954;20.118;2024-02-04T12:56:07;99419.68;;;7.40;77.19
35848;BME280;22332;51.954;20.118;2024-02-04T12:59:22;99419.47;;;7.34;77.17
35848;BME280;22332;51.954;20.118;2024-02-04T13:02:28;99422.73;;;7.29;77.05
35848;BME280;22332;51.954;20.118;2024-02-04T13:05:34;99422.63;;;7.23;77.03
35848;BME280;22332;51.954;20.118;2024-02-04T13:08:41;99416.29;;;7.16;76.49
35848;BME280;22332;51.954;20.118;2024-02-04T13:11:47;99418.75;;;7.12;76.81
35848;BME280;22332;51.954;20.118;2024-02-04T13:14:53;99422.85;;;7.12;76.36
35848;BME280;22332;51.954;20.118;2024-02-04T13:17:58;99420.17;;;7.12;76.52
35848;BME280;22332;51.954;20.118;2024-02-04T13:21:05;99410.33;;;7.13;75.78
35848;BME280;22332;51.954;20.118;2024-02-04T13:24:10;99409.91;;;7.16;76.11
35848;BME280;22332;51.954;20.118;2024-02-04T13:27:16;99403.63;;;7.20;76.24
35848;BME280;22332;51.954;20.118;2024-02-04T13:30:22;99398.80;;;7.22;75.39
35848;BME280;22332;51.954;20.118;2024-02-04T13:33:27;99394.83;;;7.18;75.08
35848;BME280;22332;51.954;20.118;2024-02-04T13:36:33;99386.10;;;7.15;75.13
35848;BME280;22332;51.954;20.118;2024-02-04T13:39:38;99376.85;;;7.12;74.48
35848;BME280;22332;51.954;20.118;2024-02-04T13:42:45;99383.23;;;7.05;73.95
35848;BME280;22332;51.954;20.118;2024-02-04T13:45:51;99384.31;;;7.01;74.18
35848;BME280;22332;51.954;20.118;2024-02-04T13:48:56;99384.96;;;6.96;74.22
35848;BME280;22332;51.954;20.118;2024-02-04T13:52:02;99384.66;;;6.96;74.41
35848;BME280;22332;51.954;20.118;2024-02-04T13:55:09;99382.08;;;6.95;74.44
35848;BME280;22332;51.954;20.118;2024-02-04T13:58:15;99378.70;;;6.95;74.44
35848;BME280;22332;51.954;20.118;2024-02-04T14:01:22;99361.26;;;6.96;74.21
35848;BME280;22332;51.954;20.118;2024-02-04T14:04:29;99360.52;;;6.96;74.59
35848;BME280;22332;51.954;20.118;2024-02-04T14:07:36;99364.71;;;6.97;74.16
35848;BME280;22332;51.954;20.118;2024-02-04T14:10:42;99352.55;;;6.96;74.44
35848;BME280;22332;51.954;20.118;2024-02-04T14:13:48;99347.31;;;7.00;74.12
35848;BME280;22332;51.954;20.118;2024-02-04T14:16:53;99347.39;;;7.04;74.33
35848;BME280;22332;51.954;20.118;2024-02-04T14:19:59;99349.73;;;7.09;74.22
35848;BME280;22332;51.954;20.118;2024-02-04T14:23:05;99354.55;;;7.08;73.75
35848;BME280;22332;51.954;20.118;2024-02-04T14:26:18;99356.23;;;7.12;74.20
35848;BME280;22332;51.954;20.118;2024-02-04T14:29:24;99352.68;;;7.15;74.39
35848;BME280;22332;51.954;20.118;2024-02-04T14:32:30;99346.48;;;7.17;74.17
35848;BME280;22332;51.954;20.118;2024-02-04T14:35:35;99346.60;;;7.14;73.54
35848;BME280;22332;51.954;20.118;2024-02-04T14:38:41;99344.66;;;7.12;74.03
35848;BME280;22332;51.954;20.118;2024-02-04T14:41:47;99340.63;;;7.10;73.32
35848;BME280;22332;51.954;20.118;2024-02-04T14:44:52;99340.34;;;7.04;73.29
35848;BME280;22332;51.954;20.118;2024-02-04T14:47:58;99332.28;;;6.99;73.32
35848;BME280;22332;51.954;20.118;2024-02-04T14:51:04;99326.67;;;6.97;73.56
35848;BME280;22332;51.954;20.118;2024-02-04T14:54:10;99326.48;;;6.95;73.85
35848;BME280;22332;51.954;20.118;2024-02-04T14:57:15;99317.70;;;6.91;73.91
35848;BME280;22332;51.954;20.118;2024-02-04T15:00:22;99310.55;;;6.91;73.82
35848;BME280;22332;51.954;20.118;2024-02-04T15:03:30;99309.68;;;6.90;73.85
35848;BME280;22332;51.954;20.118;2024-02-04T15:06:36;99304.02;;;6.89;74.12
35848;BME280;22332;51.954;20.118;2024-02-04T15:09:42;99302.80;;;6.86;73.65
35848;BME280;22332;51.954;20.118;2024-02-04T15:12:48;99295.95;;;6.90;73.66
35848;BME280;22332;51.954;20.118;2024-02-04T15:15:58;99291.21;;;6.91;73.29
35848;BME280;22332;51.954;20.118;2024-02-04T15:19:04;99296.73;;;6.96;73.48
35848;BME280;22332;51.954;20.118;2024-02-04T15:22:11;99296.14;;;6.98;73.47
35848;BME280;22332;51.954;20.118;2024-02-04T15:25:19;99292.41;;;7.02;73.63
35848;BME280;22332;51.954;20.118;2024-02-04T15:28:26;99289.55;;;7.03;73.50
35848;BME280;22332;51.954;20.118;2024-02-04T15:31:33;99280.13;;;7.03;73.30
35848;BME280;22332;51.954;20.118;2024-02-04T15:34:39;99273.52;;;7.02;73.37
35848;BME280;22332;51.954;20.118;2024-02-04T15:37:45;99279.94;;;6.99;73.06
35848;BME280;22332;51.954;20.118;2024-02-04T15:40:51;99277.42;;;6.93;72.75
35848;BME280;22332;51.954;20.118;2024-02-04T15:43:56;99273.11;;;6.90;73.28
35848;BME280;22332;51.954;20.118;2024-02-04T15:47:02;99272.70;;;6.91;73.55
35848;BME280;22332;51.954;20.118;2024-02-04T15:50:11;99271.75;;;6.88;72.87
35848;BME280;22332;51.954;20.118;2024-02-04T15:53:19;99257.89;;;6.74;73.23
35848;BME280;22332;51.954;20.118;2024-02-04T15:56:26;99270.56;;;6.80;73.33
35848;BME280;22332;51.954;20.118;2024-02-04T15:59:45;99270.27;;;6.76;72.91
35848;BME280;22332;51.954;20.118;2024-02-04T16:02:55;99265.82;;;6.75;73.06
35848;BME280;22332;51.954;20.118;2024-02-04T16:06:02;99270.85;;;6.79;73.04
35848;BME280;22332;51.954;20.118;2024-02-04T16:09:09;99263.66;;;6.85;73.35
35848;BME280;22332;51.954;20.118;2024-02-04T16:12:18;99262.37;;;6.91;73.12
35848;BME280;22332;51.954;20.118;2024-02-04T16:15:26;99268.58;;;6.91;73.05
35848;BME280;22332;51.954;20.118;2024-02-04T16:18:33;99262.63;;;6.91;73.12
35848;BME280;22332;51.954;20.118;2024-02-04T16:21:39;99266.64;;;6.89;73.08
35848;BME280;22332;51.954;20.118;2024-02-04T16:24:46;99262.50;;;6.86;73.15
35848;BME280;22332;51.954;20.118;2024-02-04T16:27:51;99261.98;;;6.83;72.70